Time;durP1;ratioP1;P1;durP2;ratioP2;P2;SDS_P1;SDS_P2;PMS_P1;PMS_P2;Temp;Humidity;BMP_temperature;BMP_pressure;BME280_temperature;BME280_humidity;BME280_pressure;Samples;Min_cycle;Max_cycle;Signal;HPM_P1;HPM_P2
2021/11/03 00:00:21;;;;;;;;;;;5.20;99.90;;;;;;5077377;28;19916;-70
2021/11/03 00:02:47;;;;;;;;;;;5.50;99.90;;;;;;5054818;28;20259;-70
2021/11/03 00:05:13;;;;;;;;;;;5.50;99.90;;;;;;5076194;28;19923;-70
2021/11/03 00:07:39;;;;;;;;;;;5.50;99.90;;;;;;5065461;28;19922;-70
2021/11/03 00:10:06;;;;;;;;;;;5.60;99.90;;;;;;5053096;28;19912;-70
2021/11/03 00:12:32;;;;;;;;;;;5.70;99.90;;;;;;5047737;28;19915;-69
2021/11/03 00:14:58;;;;;;;;;;;5.70;99.90;;;;;;5043209;28;19917;-70
2021/11/03 00:17:24;;;;;;;;;;;5.70;99.90;;;;;;5071153;28;19919;-70
2021/11/03 00:19:50;;;;;;;;;;;5.60;99.90;;;;;;5054516;28;19912;-70
2021/11/03 00:22:15;;;;;;;;;;;5.60;99.90;;;;;;5071027;28;19919;-70
2021/11/03 00:24:42;;;;;;;;;;;5.50;99.90;;;;;;5069104;28;19923;-70
2021/11/03 00:27:08;;;;;;;;;;;5.50;99.90;;;;;;5068631;28;20382;-70
2021/11/03 00:29:33;;;;;;;;;;;5.70;99.90;;;;;;5052575;28;19916;-70
2021/11/03 00:31:59;;;;;;;;;;;5.60;99.90;;;;;;5074896;28;20038;-69
2021/11/03 00:34:24;;;;;;;;;;;5.60;99.90;;;;;;5072890;28;20018;-70
2021/11/03 00:36:50;;;;;;;;;;;5.60;99.90;;;;;;5072771;28;20311;-69
2021/11/03 00:39:15;;;;;;;;;;;5.40;99.90;;;;;;5068805;28;19959;-69
2021/11/03 00:41:41;;;;;;;;;;;5.40;99.90;;;;;;5060331;28;19943;-69
2021/11/03 00:44:06;;;;;;;;;;;5.40;99.90;;;;;;5070599;28;19920;-69
2021/11/03 00:46:32;;;;;;;;;;;5.20;99.90;;;;;;5071272;28;20260;-70
2021/11/03 00:48:57;;;;;;;;;;;5.30;99.90;;;;;;5064539;28;19916;-70
2021/11/03 00:51:23;;;;;;;;;;;5.40;99.90;;;;;;5076523;28;19908;-70
2021/11/03 00:53:49;;;;;;;;;;;5.40;99.90;;;;;;5069040;28;19931;-70
2021/11/03 00:56:15;;;;;;;;;;;5.40;99.90;;;;;;5070656;28;19935;-69
2021/11/03 00:58:41;;;;;;;;;;;5.50;99.90;;;;;;5069131;28;19917;-69
2021/11/03 01:01:07;;;;;;;;;;;5.40;99.90;;;;;;5066735;28;19918;-70
2021/11/03 01:03:32;;;;;;;;;;;5.30;99.90;;;;;;5057147;28;19948;-70
2021/11/03 01:05:58;;;;;;;;;;;5.30;99.90;;;;;;5046196;28;19920;-70
2021/11/03 01:08:23;;;;;;;;;;;5.10;99.90;;;;;;5061747;28;19915;-70
2021/11/03 01:10:50;;;;;;;;;;;5.20;99.90;;;;;;5064663;28;19912;-70
2021/11/03 01:13:16;;;;;;;;;;;5.20;99.90;;;;;;5068775;28;19927;-70
2021/11/03 01:15:42;;;;;;;;;;;5.20;99.90;;;;;;5066213;28;19917;-70
2021/11/03 01:18:08;;;;;;;;;;;5.00;99.90;;;;;;5068775;28;19931;-70
2021/11/03 01:20:34;;;;;;;;;;;4.90;99.90;;;;;;5063528;28;20276;-70
2021/11/03 01:22:59;;;;;;;;;;;4.90;99.90;;;;;;5061043;28;19960;-70
2021/11/03 01:25:25;;;;;;;;;;;4.60;99.90;;;;;;5058145;28;19991;-68
2021/11/03 01:27:51;;;;;;;;;;;4.30;99.90;;;;;;5045207;28;19908;-69
2021/11/03 01:30:18;;;;;;;;;;;4.10;99.90;;;;;;5060070;28;20395;-69
2021/11/03 01:32:43;;;;;;;;;;;3.90;99.90;;;;;;5062914;28;19995;-70
2021/11/03 01:35:09;;;;;;;;;;;3.90;99.90;;;;;;5061065;28;20024;-70
2021/11/03 01:37:35;;;;;;;;;;;3.90;99.90;;;;;;5040599;28;19919;-70
2021/11/03 01:40:00;;;;;;;;;;;3.80;99.90;;;;;;5054118;28;20346;-70
2021/11/03 01:42:26;;;;;;;;;;;3.70;99.90;;;;;;5060219;28;19943;-70
2021/11/03 01:44:52;;;;;;;;;;;3.80;99.90;;;;;;5061056;28;19913;-70
2021/11/03 01:47:36;;;;;;;;;;;3.80;99.90;;;;;;5063859;28;19913;-70
2021/11/03 01:50:07;;;;;;;;;;;3.80;99.90;;;;;;5057275;28;19928;-70
2021/11/03 01:52:33;;;;;;;;;;;3.80;99.90;;;;;;5065084;28;20024;-70
2021/11/03 01:54:58;;;;;;;;;;;3.90;99.90;;;;;;5063336;28;20022;-70
2021/11/03 01:57:26;;;;;;;;;;;4.10;99.90;;;;;;5067454;28;19912;-70
2021/11/03 01:59:53;;;;;;;;;;;4.00;99.90;;;;;;5050371;28;19917;-70
2021/11/03 02:02:20;;;;;;;;;;;4.20;99.90;;;;;;5051691;28;19920;-69
2021/11/03 02:04:46;;;;;;;;;;;4.70;99.90;;;;;;5050509;28;19961;-69
2021/11/03 02:07:15;;;;;;;;;;;4.90;99.90;;;;;;5051264;28;20003;-69
2021/11/03 02:09:43;;;;;;;;;;;5.00;99.90;;;;;;5069291;28;20395;-69
2021/11/03 02:12:35;;;;;;;;;;;5.10;99.90;;;;;;5068994;28;19912;-69
2021/11/03 02:15:01;;;;;;;;;;;5.20;99.90;;;;;;5061739;28;19917;-69
2021/11/03 02:17:27;;;;;;;;;;;5.20;99.90;;;;;;5050408;28;19928;-69
2021/11/03 02:19:54;;;;;;;;;;;5.30;99.90;;;;;;5062824;28;19909;-70
2021/11/03 02:22:29;;;;;;;;;;;5.00;99.90;;;;;;5069675;28;19916;-69
2021/11/03 02:24:54;;;;;;;;;;;5.20;99.90;;;;;;5064651;28;19919;-70
2021/11/03 02:27:24;;;;;;;;;;;5.00;99.90;;;;;;5062343;28;19908;-70
2021/11/03 02:29:50;;;;;;;;;;;4.80;99.90;;;;;;5066390;28;19912;-69
2021/11/03 02:32:23;;;;;;;;;;;4.80;99.90;;;;;;5061849;28;19996;-70
2021/11/03 02:34:49;;;;;;;;;;;4.80;99.90;;;;;;5067137;28;19946;-69
2021/11/03 02:37:27;;;;;;;;;;;4.80;99.90;;;;;;5050555;28;19908;-69
2021/11/03 02:40:06;;;;;;;;;;;4.70;99.90;;;;;;5056412;28;19924;-69
2021/11/03 02:42:33;;;;;;;;;;;4.60;99.90;;;;;;5063016;28;19909;-69
2021/11/03 02:45:01;;;;;;;;;;;4.70;99.90;;;;;;5065413;28;20265;-69
2021/11/03 02:47:26;;;;;;;;;;;4.70;99.90;;;;;;5061798;28;19928;-70
2021/11/03 02:49:52;;;;;;;;;;;4.70;99.90;;;;;;5060717;28;20368;-70
2021/11/03 02:52:22;;;;;;;;;;;4.80;99.90;;;;;;5066630;28;19967;-70
2021/11/03 02:54:47;;;;;;;;;;;4.80;99.90;;;;;;5054398;28;20470;-70
2021/11/03 02:57:13;;;;;;;;;;;4.90;99.90;;;;;;5035103;28;19912;-70
2021/11/03 02:59:38;;;;;;;;;;;4.80;99.90;;;;;;5060219;28;19913;-69
2021/11/03 03:02:05;;;;;;;;;;;5.00;99.90;;;;;;5064522;28;19917;-69
2021/11/03 03:04:32;;;;;;;;;;;5.00;99.90;;;;;;5070708;28;19935;-69
2021/11/03 03:06:58;;;;;;;;;;;5.00;99.90;;;;;;5071650;28;19925;-69
2021/11/03 03:09:23;;;;;;;;;;;4.90;99.90;;;;;;5054014;28;19912;-70
2021/11/03 03:11:51;;;;;;;;;;;4.90;99.90;;;;;;5071626;28;20011;-70
2021/11/03 03:14:18;;;;;;;;;;;4.90;99.90;;;;;;5070714;28;19959;-70
2021/11/03 03:16:46;;;;;;;;;;;4.80;99.90;;;;;;5070306;28;19920;-70
2021/11/03 03:19:11;;;;;;;;;;;4.40;99.90;;;;;;5072353;28;20272;-70
2021/11/03 03:21:37;;;;;;;;;;;4.10;99.90;;;;;;5052677;28;19915;-70
2021/11/03 03:24:04;;;;;;;;;;;4.00;99.90;;;;;;5050400;28;19913;-70
2021/11/03 03:26:29;;;;;;;;;;;3.80;99.90;;;;;;5063908;28;19999;-70
2021/11/03 03:28:55;;;;;;;;;;;4.10;99.90;;;;;;5071606;28;20005;-70
2021/11/03 03:31:21;;;;;;;;;;;4.00;99.90;;;;;;5072250;28;19913;-70
2021/11/03 03:33:48;;;;;;;;;;;4.00;99.90;;;;;;5071301;28;19928;-70
2021/11/03 03:36:14;;;;;;;;;;;3.70;99.90;;;;;;5071446;28;20367;-70
2021/11/03 03:38:39;;;;;;;;;;;3.50;99.90;;;;;;5071775;28;19908;-69
2021/11/03 03:41:05;;;;;;;;;;;3.40;99.90;;;;;;5071705;28;19919;-69
2021/11/03 03:43:31;;;;;;;;;;;3.60;99.90;;;;;;5067578;28;19917;-69
2021/11/03 03:45:56;;;;;;;;;;;3.20;99.90;;;;;;5071172;28;20042;-69
2021/11/03 03:48:21;;;;;;;;;;;3.30;99.90;;;;;;5049765;28;19912;-69
2021/11/03 03:50:47;;;;;;;;;;;3.20;99.90;;;;;;5068750;28;19970;-69
2021/11/03 03:53:13;;;;;;;;;;;3.10;99.90;;;;;;5064086;28;19985;-69
2021/11/03 03:55:38;;;;;;;;;;;3.00;99.90;;;;;;5064503;28;19942;-69
2021/11/03 03:58:07;;;;;;;;;;;2.90;99.90;;;;;;5067160;28;19965;-69
2021/11/03 04:00:33;;;;;;;;;;;2.80;99.90;;;;;;5064931;28;19909;-69
2021/11/03 04:02:59;;;;;;;;;;;2.80;99.90;;;;;;5048847;28;19959;-69
2021/11/03 04:05:24;;;;;;;;;;;2.80;99.90;;;;;;5062209;28;20380;-69
2021/11/03 04:07:50;;;;;;;;;;;2.80;99.90;;;;;;5050817;28;20364;-69
2021/11/03 04:10:16;;;;;;;;;;;2.80;99.90;;;;;;5052252;28;19920;-69
2021/11/03 04:12:42;;;;;;;;;;;2.80;99.90;;;;;;5062475;28;19955;-69
2021/11/03 04:15:08;;;;;;;;;;;3.00;99.90;;;;;;5069272;28;19940;-69
2021/11/03 04:17:34;;;;;;;;;;;3.30;99.90;;;;;;5071466;28;19908;-69
2021/11/03 04:19:59;;;;;;;;;;;3.40;99.90;;;;;;5065350;28;19912;-69
2021/11/03 04:22:25;;;;;;;;;;;3.70;99.90;;;;;;5070038;28;19908;-69
2021/11/03 04:24:51;;;;;;;;;;;3.90;99.90;;;;;;5064300;28;20173;-69
2021/11/03 04:27:17;;;;;;;;;;;3.90;99.90;;;;;;5061563;28;19908;-69
2021/11/03 04:29:43;;;;;;;;;;;4.00;99.90;;;;;;5068742;28;19965;-70
2021/11/03 04:32:09;;;;;;;;;;;4.10;99.90;;;;;;5053445;28;20359;-70
2021/11/03 04:34:34;;;;;;;;;;;4.20;99.90;;;;;;5067205;28;19927;-70
2021/11/03 04:37:00;;;;;;;;;;;4.30;99.90;;;;;;5070266;28;20295;-69
2021/11/03 04:39:25;;;;;;;;;;;4.20;99.90;;;;;;5052247;28;20474;-70
2021/11/03 04:41:51;;;;;;;;;;;4.10;99.90;;;;;;5052087;28;19916;-70
2021/11/03 04:44:16;;;;;;;;;;;3.90;99.90;;;;;;5070548;28;19916;-70
2021/11/03 04:46:42;;;;;;;;;;;3.90;99.90;;;;;;5068505;28;19916;-70
2021/11/03 04:49:07;;;;;;;;;;;3.80;99.90;;;;;;5068685;28;20014;-70
2021/11/03 04:51:33;;;;;;;;;;;3.90;99.90;;;;;;5049051;28;19962;-70
2021/11/03 04:53:59;;;;;;;;;;;3.90;99.90;;;;;;5067581;28;19970;-70
2021/11/03 04:56:25;;;;;;;;;;;3.90;99.90;;;;;;5049286;28;19912;-70
2021/11/03 04:58:51;;;;;;;;;;;4.30;99.90;;;;;;5057686;28;20008;-69
2021/11/03 05:01:20;;;;;;;;;;;4.30;99.90;;;;;;5048248;28;20007;-71
2021/11/03 05:03:46;;;;;;;;;;;4.50;99.90;;;;;;5065064;28;19916;-71
2021/11/03 05:06:13;;;;;;;;;;;4.50;99.90;;;;;;5064181;28;19916;-68
2021/11/03 05:08:38;;;;;;;;;;;4.60;99.90;;;;;;5048076;28;19912;-68
2021/11/03 05:11:04;;;;;;;;;;;4.70;99.90;;;;;;5043824;28;19966;-68
2021/11/03 05:13:29;;;;;;;;;;;4.80;99.90;;;;;;5062020;28;20292;-68
2021/11/03 05:15:55;;;;;;;;;;;4.70;99.90;;;;;;5058072;28;20003;-68
2021/11/03 05:18:20;;;;;;;;;;;4.60;99.90;;;;;;5058317;28;20451;-70
2021/11/03 05:20:46;;;;;;;;;;;4.50;99.90;;;;;;5063321;28;19927;-68
2021/11/03 05:23:12;;;;;;;;;;;4.50;99.90;;;;;;5067905;28;20547;-68
2021/11/03 05:25:38;;;;;;;;;;;4.50;99.90;;;;;;5066212;28;19923;-68
2021/11/03 05:28:03;;;;;;;;;;;4.60;99.90;;;;;;5060407;28;19912;-68
2021/11/03 05:30:29;;;;;;;;;;;4.50;99.90;;;;;;5041081;28;19913;-68
2021/11/03 05:32:55;;;;;;;;;;;4.50;99.90;;;;;;5062848;28;20444;-68
2021/11/03 05:35:21;;;;;;;;;;;4.30;99.90;;;;;;5060789;28;19920;-68
2021/11/03 05:37:46;;;;;;;;;;;4.40;99.90;;;;;;5062414;28;19920;-68
2021/11/03 05:40:15;;;;;;;;;;;4.50;99.90;;;;;;5042257;28;19952;-68
2021/11/03 05:42:41;;;;;;;;;;;4.50;99.90;;;;;;5050573;28;20356;-68
2021/11/03 05:45:07;;;;;;;;;;;4.50;99.90;;;;;;5058564;28;19917;-69
2021/11/03 05:47:33;;;;;;;;;;;4.30;99.90;;;;;;5065052;28;20005;-69
2021/11/03 05:49:58;;;;;;;;;;;4.40;99.90;;;;;;5058356;28;19962;-69
2021/11/03 05:52:24;;;;;;;;;;;4.40;99.90;;;;;;5063363;28;20005;-69
2021/11/03 05:54:50;;;;;;;;;;;4.50;99.90;;;;;;5058765;28;19928;-70
2021/11/03 05:57:27;;;;;;;;;;;4.70;99.90;;;;;;5061584;28;19916;-69
2021/11/03 05:59:53;;;;;;;;;;;4.80;99.90;;;;;;5059727;28;19912;-70
2021/11/03 06:02:19;;;;;;;;;;;4.70;99.90;;;;;;5056154;28;20350;-69
2021/11/03 06:04:45;;;;;;;;;;;4.70;99.90;;;;;;5058893;28;20221;-69
2021/11/03 06:07:12;;;;;;;;;;;4.60;99.90;;;;;;5056221;28;19928;-70
2021/11/03 06:09:38;;;;;;;;;;;4.60;99.90;;;;;;5041830;28;20319;-69
2021/11/03 06:12:03;;;;;;;;;;;4.50;99.90;;;;;;5054201;28;19909;-69
2021/11/03 06:14:29;;;;;;;;;;;4.50;99.90;;;;;;5054956;28;19917;-70
2021/11/03 06:16:54;;;;;;;;;;;4.30;99.90;;;;;;5058614;28;19999;-70
2021/11/03 06:19:20;;;;;;;;;;;4.30;99.90;;;;;;5055600;28;19919;-69
2021/11/03 06:21:45;;;;;;;;;;;4.20;99.90;;;;;;5062506;28;20453;-70
2021/11/03 06:24:11;;;;;;;;;;;4.20;99.90;;;;;;5049268;28;19909;-72
2021/11/03 06:26:36;;;;;;;;;;;4.20;99.90;;;;;;5063255;28;19916;-72
2021/11/03 06:29:03;;;;;;;;;;;4.20;99.90;;;;;;5061163;28;19924;-72
2021/11/03 06:31:28;;;;;;;;;;;4.20;99.90;;;;;;5067802;28;19918;-69
2021/11/03 06:33:54;;;;;;;;;;;4.30;99.90;;;;;;5044559;28;21706;-68
2021/11/03 06:36:19;;;;;;;;;;;4.30;99.90;;;;;;5056840;28;20340;-68
2021/11/03 06:38:45;;;;;;;;;;;4.40;99.90;;;;;;5065969;28;19995;-68
2021/11/03 06:41:11;;;;;;;;;;;4.40;99.90;;;;;;5068816;28;20318;-69
2021/11/03 06:43:36;;;;;;;;;;;4.30;99.90;;;;;;5070393;28;19916;-68
2021/11/03 06:46:02;;;;;;;;;;;4.30;99.90;;;;;;5072629;28;19913;-69
2021/11/03 06:48:28;;;;;;;;;;;4.30;99.90;;;;;;5072060;28;20248;-69
2021/11/03 06:50:53;;;;;;;;;;;4.20;99.90;;;;;;5060695;28;19931;-69
2021/11/03 06:53:22;;;;;;;;;;;4.30;99.90;;;;;;5067615;28;19967;-69
2021/11/03 06:55:48;;;;;;;;;;;4.30;99.90;;;;;;5070801;28;19919;-69
2021/11/03 06:58:14;;;;;;;;;;;4.40;99.90;;;;;;5048446;28;19921;-72
2021/11/03 07:00:41;;;;;;;;;;;4.40;99.90;;;;;;5063471;28;19944;-72
2021/11/03 07:03:07;;;;;;;;;;;4.50;99.90;;;;;;5065537;28;19971;-72
2021/11/03 07:05:34;;;;;;;;;;;4.60;99.90;;;;;;5073960;28;20007;-72
2021/11/03 07:08:00;;;;;;;;;;;4.60;99.90;;;;;;5073602;28;19924;-72
2021/11/03 07:10:29;;;;;;;;;;;4.60;99.90;;;;;;5070755;28;19916;-72
2021/11/03 07:12:54;;;;;;;;;;;4.60;99.90;;;;;;5074371;28;20315;-73
2021/11/03 07:15:20;;;;;;;;;;;4.80;99.90;;;;;;5068982;28;19978;-73
2021/11/03 07:17:45;;;;;;;;;;;4.70;99.90;;;;;;5069294;28;19917;-72
2021/11/03 07:20:11;;;;;;;;;;;4.70;99.90;;;;;;5053635;28;20368;-72
2021/11/03 07:22:37;;;;;;;;;;;4.80;99.90;;;;;;5070996;28;19912;-72
2021/11/03 07:25:03;;;;;;;;;;;4.70;99.90;;;;;;5068443;28;19912;-72
2021/11/03 07:27:28;;;;;;;;;;;4.70;99.90;;;;;;5062561;28;19913;-72
2021/11/03 07:29:54;;;;;;;;;;;4.70;99.90;;;;;;5052367;28;19920;-72
2021/11/03 07:32:19;;;;;;;;;;;4.80;99.90;;;;;;5069156;28;19916;-72
2021/11/03 07:34:45;;;;;;;;;;;4.70;99.90;;;;;;5065166;28;19929;-72
2021/11/03 07:37:10;;;;;;;;;;;4.80;99.90;;;;;;5069909;28;19944;-72
2021/11/03 07:39:36;;;;;;;;;;;4.90;99.90;;;;;;5066645;28;19960;-72
2021/11/03 07:42:01;;;;;;;;;;;5.00;99.90;;;;;;5064711;28;20365;-72
2021/11/03 07:44:27;;;;;;;;;;;5.10;99.90;;;;;;5049389;28;19913;-72
2021/11/03 07:46:52;;;;;;;;;;;5.10;99.90;;;;;;5051348;28;19939;-72
2021/11/03 07:49:18;;;;;;;;;;;5.20;99.90;;;;;;5053426;28;19909;-72
2021/11/03 07:51:44;;;;;;;;;;;5.30;99.90;;;;;;5068852;28;19942;-72
2021/11/03 07:54:09;;;;;;;;;;;5.20;99.90;;;;;;5070577;28;19916;-72
2021/11/03 07:56:36;;;;;;;;;;;5.20;99.90;;;;;;5063521;28;20363;-73
2021/11/03 07:59:02;;;;;;;;;;;5.30;99.90;;;;;;5064107;28;19963;-73
2021/11/03 08:01:28;;;;;;;;;;;5.40;99.90;;;;;;5058453;28;20344;-73
2021/11/03 08:03:54;;;;;;;;;;;5.50;99.90;;;;;;5060106;28;19915;-73
2021/11/03 08:06:20;;;;;;;;;;;5.60;99.90;;;;;;5070443;28;19947;-73
2021/11/03 08:08:51;;;;;;;;;;;5.70;99.90;;;;;;5068680;28;19912;-72
2021/11/03 08:11:17;;;;;;;;;;;5.70;99.90;;;;;;5069273;28;19913;-72
2021/11/03 08:13:43;;;;;;;;;;;5.70;99.90;;;;;;5051262;28;19927;-72
2021/11/03 08:16:09;;;;;;;;;;;5.70;99.90;;;;;;5066358;28;19919;-72
2021/11/03 08:18:38;;;;;;;;;;;5.70;99.90;;;;;;5048641;28;19920;-72
2021/11/03 08:21:04;;;;;;;;;;;5.60;99.90;;;;;;5061847;28;19963;-72
2021/11/03 08:23:29;;;;;;;;;;;5.60;99.90;;;;;;5063423;28;19955;-72
2021/11/03 08:25:55;;;;;;;;;;;5.70;99.90;;;;;;5066206;28;20066;-72
2021/11/03 08:28:20;;;;;;;;;;;5.70;99.90;;;;;;5069148;28;20424;-72
2021/11/03 08:30:47;;;;;;;;;;;5.70;99.90;;;;;;5063549;28;20387;-72
2021/11/03 08:33:25;;;;;;;;;;;5.80;99.90;;;;;;5067094;28;20065;-72
2021/11/03 08:35:52;;;;;;;;;;;6.00;99.90;;;;;;5067421;28;19920;-72
2021/11/03 08:38:21;;;;;;;;;;;6.10;99.90;;;;;;5067273;28;20291;-72
2021/11/03 08:40:47;;;;;;;;;;;6.00;99.90;;;;;;5065733;28;19924;-72
2021/11/03 08:43:14;;;;;;;;;;;6.00;99.90;;;;;;5068689;28;19943;-72
2021/11/03 08:45:40;;;;;;;;;;;6.10;99.90;;;;;;5068096;28;20257;-72
2021/11/03 08:48:06;;;;;;;;;;;6.10;99.90;;;;;;5050635;28;19927;-72
2021/11/03 08:50:33;;;;;;;;;;;6.30;99.90;;;;;;5067942;28;19928;-72
2021/11/03 08:52:58;;;;;;;;;;;6.30;99.90;;;;;;5067021;28;19919;-72
2021/11/03 08:55:28;;;;;;;;;;;6.50;99.90;;;;;;5048798;28;20401;-73
2021/11/03 08:57:55;;;;;;;;;;;6.60;99.90;;;;;;5064677;28;19920;-72
2021/11/03 09:00:23;;;;;;;;;;;6.60;99.90;;;;;;5066119;28;20386;-72
2021/11/03 09:02:49;;;;;;;;;;;6.50;99.90;;;;;;5067235;28;19916;-72
2021/11/03 09:05:15;;;;;;;;;;;6.50;99.90;;;;;;5070003;28;20326;-72
2021/11/03 09:07:41;;;;;;;;;;;6.40;99.90;;;;;;5070121;28;19983;-72
2021/11/03 09:10:07;;;;;;;;;;;6.20;99.90;;;;;;5068005;28;19962;-72
2021/11/03 09:12:33;;;;;;;;;;;6.40;99.90;;;;;;5070698;28;20338;-72
2021/11/03 09:14:59;;;;;;;;;;;6.40;99.90;;;;;;5067112;28;19977;-72
2021/11/03 09:17:26;;;;;;;;;;;6.40;99.90;;;;;;5049093;28;19912;-72
2021/11/03 09:19:52;;;;;;;;;;;6.40;99.90;;;;;;5066877;28;19912;-72
2021/11/03 09:22:17;;;;;;;;;;;6.40;99.90;;;;;;5066025;28;19916;-72
2021/11/03 09:24:43;;;;;;;;;;;6.50;99.90;;;;;;5066891;28;20271;-72
2021/11/03 09:27:13;;;;;;;;;;;6.80;99.90;;;;;;5062702;28;20008;-72
2021/11/03 09:29:43;;;;;;;;;;;6.90;99.90;;;;;;5058492;28;19916;-72
2021/11/03 09:32:11;;;;;;;;;;;7.00;99.90;;;;;;5046990;28;20355;-73
2021/11/03 09:34:37;;;;;;;;;;;7.10;99.90;;;;;;5064042;28;19947;-72
2021/11/03 09:37:03;;;;;;;;;;;7.20;99.90;;;;;;5068802;28;20336;-72
2021/11/03 09:39:29;;;;;;;;;;;7.20;99.90;;;;;;5048889;28;19920;-72
2021/11/03 09:41:55;;;;;;;;;;;7.30;99.90;;;;;;5048299;28;20355;-72
2021/11/03 09:44:23;;;;;;;;;;;7.20;99.90;;;;;;5052581;28;19916;-72
2021/11/03 09:46:54;;;;;;;;;;;7.10;99.90;;;;;;5066635;28;19920;-72
2021/11/03 09:49:27;;;;;;;;;;;7.30;99.90;;;;;;5051744;28;19997;-72
2021/11/03 09:52:01;;;;;;;;;;;7.40;99.90;;;;;;5052372;28;19999;-73
2021/11/03 09:54:29;;;;;;;;;;;7.50;99.90;;;;;;5062175;28;20457;-72
2021/11/03 09:57:15;;;;;;;;;;;7.50;99.90;;;;;;5068725;28;19928;-72
2021/11/03 09:59:44;;;;;;;;;;;7.20;99.90;;;;;;5066778;28;20267;-74
2021/11/03 10:02:29;;;;;;;;;;;7.10;99.90;;;;;;5052559;28;19912;-74
2021/11/03 10:05:01;;;;;;;;;;;7.20;99.90;;;;;;5053098;28;19908;-74
2021/11/03 10:07:32;;;;;;;;;;;7.50;99.90;;;;;;5068364;28;19908;-75
2021/11/03 10:10:07;;;;;;;;;;;7.70;99.90;;;;;;5067422;28;20003;-74
2021/11/03 10:12:32;;;;;;;;;;;7.90;99.90;;;;;;5068938;28;19913;-75
2021/11/03 10:14:58;;;;;;;;;;;7.60;99.90;;;;;;5069225;28;19916;-74
2021/11/03 10:17:25;;;;;;;;;;;7.50;99.90;;;;;;5072256;28;20011;-75
2021/11/03 10:19:52;;;;;;;;;;;7.40;99.90;;;;;;5070592;28;19943;-75
2021/11/03 10:22:38;;;;;;;;;;;7.60;99.90;;;;;;5054093;28;20433;-75
2021/11/03 10:25:04;;;;;;;;;;;7.40;99.90;;;;;;5049521;28;19912;-75
2021/11/03 10:27:30;;;;;;;;;;;7.40;99.90;;;;;;5062941;28;19920;-75
2021/11/03 10:30:13;;;;;;;;;;;7.40;99.90;;;;;;5054518;28;20114;-75
2021/11/03 10:32:40;;;;;;;;;;;7.50;99.90;;;;;;5059577;28;19940;-74
2021/11/03 10:35:15;;;;;;;;;;;7.70;99.90;;;;;;5071911;28;19924;-75
2021/11/03 10:37:44;;;;;;;;;;;7.60;99.90;;;;;;5062812;28;20298;-75
2021/11/03 10:40:31;;;;;;;;;;;7.60;99.90;;;;;;5049626;28;19924;-75
2021/11/03 10:43:00;;;;;;;;;;;7.60;99.90;;;;;;5054801;28;19970;-75
2021/11/03 10:45:32;;;;;;;;;;;7.50;99.90;;;;;;5064553;28;19916;-74
2021/11/03 10:48:07;;;;;;;;;;;7.50;99.90;;;;;;5041338;28;19909;-75
2021/11/03 10:50:35;;;;;;;;;;;7.50;99.90;;;;;;5043463;28;19918;-75
2021/11/03 10:53:13;;;;;;;;;;;7.60;99.90;;;;;;5057292;28;19979;-74
2021/11/03 10:55:41;;;;;;;;;;;7.80;99.90;;;;;;5063745;28;20388;-75
2021/11/03 10:58:19;;;;;;;;;;;7.60;99.90;;;;;;5064001;28;19939;-75
2021/11/03 11:00:57;;;;;;;;;;;7.60;99.90;;;;;;5071367;28;20288;-75
2021/11/03 11:03:25;;;;;;;;;;;7.60;99.90;;;;;;5057381;28;19912;-75
2021/11/03 11:05:54;;;;;;;;;;;8.10;99.90;;;;;;5071426;28;19920;-75
2021/11/03 11:08:20;;;;;;;;;;;8.50;99.90;;;;;;5055664;28;19916;-75
2021/11/03 11:10:48;;;;;;;;;;;8.50;99.90;;;;;;5072806;28;19916;-75
2021/11/03 11:13:16;;;;;;;;;;;8.50;99.90;;;;;;5071461;28;19947;-75
2021/11/03 11:15:48;;;;;;;;;;;8.30;99.90;;;;;;5061509;28;19935;-75
2021/11/03 11:18:32;;;;;;;;;;;8.00;99.90;;;;;;5065568;28;19909;-75
2021/11/03 11:21:00;;;;;;;;;;;8.00;99.90;;;;;;5044910;28;19952;-75
2021/11/03 11:23:33;;;;;;;;;;;8.00;99.90;;;;;;5067735;28;19977;-75
2021/11/03 11:25:59;;;;;;;;;;;8.20;99.90;;;;;;5050221;28;19957;-75
2021/11/03 11:28:33;;;;;;;;;;;8.40;99.90;;;;;;5065505;28;19913;-75
2021/11/03 11:31:01;;;;;;;;;;;8.20;99.90;;;;;;5060333;28;20276;-75
2021/11/03 11:33:29;;;;;;;;;;;8.20;99.90;;;;;;5067790;28;20121;-75
2021/11/03 11:36:13;;;;;;;;;;;8.30;99.90;;;;;;5052050;28;19913;-75
2021/11/03 11:39:01;;;;;;;;;;;8.60;99.90;;;;;;5061047;28;20283;-75
2021/11/03 11:41:30;;;;;;;;;;;8.60;99.90;;;;;;5059029;28;20402;-75
2021/11/03 11:44:01;;;;;;;;;;;8.30;99.90;;;;;;5058944;28;19940;-75
2021/11/03 11:46:28;;;;;;;;;;;8.10;99.90;;;;;;5060972;28;19916;-75
2021/11/03 11:48:59;;;;;;;;;;;8.00;99.90;;;;;;5052607;28;20094;-75
2021/11/03 11:51:29;;;;;;;;;;;8.10;99.90;;;;;;5062395;28;19919;-75
2021/11/03 11:53:55;;;;;;;;;;;8.10;99.90;;;;;;5068913;28;19970;-75
2021/11/03 11:56:31;;;;;;;;;;;8.30;99.90;;;;;;5073063;28;19920;-75
2021/11/03 11:59:08;;;;;;;;;;;8.00;99.90;;;;;;5069175;28;19916;-75
2021/11/03 12:01:42;;;;;;;;;;;7.80;99.90;;;;;;5071495;28;19920;-75
2021/11/03 12:04:07;;;;;;;;;;;7.80;99.90;;;;;;5068390;28;19916;-75
2021/11/03 12:06:43;;;;;;;;;;;7.80;99.90;;;;;;5063391;28;19913;-75
2021/11/03 12:09:28;;;;;;;;;;;7.90;99.90;;;;;;5053610;28;20401;-75
2021/11/03 12:11:59;;;;;;;;;;;7.70;99.90;;;;;;5069669;28;19984;-75
2021/11/03 12:14:40;;;;;;;;;;;7.60;99.90;;;;;;5068699;28;19916;-74
2021/11/03 12:17:08;;;;;;;;;;;7.60;99.90;;;;;;5064804;28;19923;-74
2021/11/03 12:19:37;;;;;;;;;;;7.50;99.90;;;;;;5051413;28;20078;-74
2021/11/03 12:22:12;;;;;;;;;;;7.50;99.90;;;;;;5067882;28;19912;-74
2021/11/03 12:24:39;;;;;;;;;;;7.60;99.90;;;;;;5071231;28;20279;-74
2021/11/03 12:27:15;;;;;;;;;;;7.80;99.90;;;;;;5069213;28;19912;-74
2021/11/03 12:29:41;;;;;;;;;;;7.60;99.90;;;;;;5065141;28;20015;-74
2021/11/03 12:32:21;;;;;;;;;;;7.50;99.90;;;;;;5051428;28;19951;-74
2021/11/03 12:34:46;;;;;;;;;;;7.40;99.90;;;;;;5050910;28;19974;-74
2021/11/03 12:37:12;;;;;;;;;;;7.20;99.90;;;;;;5053893;28;19912;-74
2021/11/03 12:39:40;;;;;;;;;;;7.20;99.90;;;;;;5064709;28;20375;-74
2021/11/03 12:42:09;;;;;;;;;;;7.10;99.90;;;;;;5066517;28;19999;-74
2021/11/03 12:44:36;;;;;;;;;;;7.20;99.90;;;;;;5055608;28;19916;-74
2021/11/03 12:47:02;;;;;;;;;;;7.10;99.90;;;;;;5061971;28;19927;-74
2021/11/03 12:49:28;;;;;;;;;;;7.00;99.90;;;;;;5058866;28;20344;-74
2021/11/03 12:51:56;;;;;;;;;;;7.00;99.90;;;;;;5063584;28;19920;-74
2021/11/03 12:54:23;;;;;;;;;;;7.00;99.90;;;;;;5061675;28;20011;-74
2021/11/03 12:57:17;;;;;;;;;;;7.00;99.90;;;;;;5061667;28;19912;-74
2021/11/03 12:59:43;;;;;;;;;;;7.00;99.90;;;;;;5074552;28;20046;-74
2021/11/03 13:02:19;;;;;;;;;;;7.00;99.90;;;;;;5069349;28;19974;-74
2021/11/03 13:04:47;;;;;;;;;;;7.00;99.90;;;;;;5061637;28;19935;-74
2021/11/03 13:07:17;;;;;;;;;;;7.00;99.90;;;;;;5063196;28;19913;-74
2021/11/03 13:09:54;;;;;;;;;;;7.00;99.90;;;;;;5064907;28;19995;-74
2021/11/03 13:12:23;;;;;;;;;;;7.00;99.90;;;;;;5053763;28;19935;-74
2021/11/03 13:14:59;;;;;;;;;;;7.00;99.90;;;;;;5070047;28;19919;-74
2021/11/03 13:17:27;;;;;;;;;;;7.00;99.90;;;;;;5070900;28;19916;-74
2021/11/03 13:19:53;;;;;;;;;;;7.20;99.90;;;;;;5069991;28;19919;-74
2021/11/03 13:22:29;;;;;;;;;;;7.10;99.90;;;;;;5058681;28;19916;-74
2021/11/03 13:24:55;;;;;;;;;;;7.10;99.90;;;;;;5072408;28;19912;-74
2021/11/03 13:27:26;;;;;;;;;;;7.30;99.90;;;;;;5052698;28;20118;-74
2021/11/03 13:29:54;;;;;;;;;;;7.20;99.90;;;;;;5064911;28;19973;-74
2021/11/03 13:32:22;;;;;;;;;;;7.20;99.90;;;;;;5069935;28;20005;-74
2021/11/03 13:34:48;;;;;;;;;;;7.30;99.90;;;;;;5070887;28;19928;-74
2021/11/03 13:37:19;;;;;;;;;;;7.40;99.90;;;;;;5050515;28;20586;-74
2021/11/03 13:40:03;;;;;;;;;;;7.30;99.90;;;;;;5065691;28;19928;-74
2021/11/03 13:42:30;;;;;;;;;;;7.20;99.90;;;;;;5054790;28;19936;-74
2021/11/03 13:44:58;;;;;;;;;;;7.20;99.90;;;;;;5043122;28;20469;-74
2021/11/03 13:47:25;;;;;;;;;;;7.40;99.90;;;;;;5069632;28;19959;-74
2021/11/03 13:50:09;;;;;;;;;;;7.40;99.90;;;;;;5071275;28;20422;-74
2021/11/03 13:52:35;;;;;;;;;;;7.40;99.90;;;;;;5068525;28;19923;-74
2021/11/03 13:55:00;;;;;;;;;;;7.30;99.90;;;;;;5068804;28;19917;-74
2021/11/03 13:57:32;;;;;;;;;;;7.50;99.90;;;;;;5071129;28;19913;-74
2021/11/03 13:59:59;;;;;;;;;;;7.60;99.90;;;;;;5076938;28;19969;-74
2021/11/03 14:02:29;;;;;;;;;;;7.40;99.90;;;;;;5067994;28;19915;-74
2021/11/03 14:04:55;;;;;;;;;;;7.30;99.90;;;;;;5071388;28;20026;-74
2021/11/03 14:07:25;;;;;;;;;;;7.30;99.90;;;;;;5069621;28;19913;-73
2021/11/03 14:09:52;;;;;;;;;;;7.40;99.90;;;;;;5070804;28;19976;-73
2021/11/03 14:12:19;;;;;;;;;;;7.40;99.90;;;;;;5070068;28;20003;-74
2021/11/03 14:14:44;;;;;;;;;;;7.30;99.90;;;;;;5071030;28;19916;-74
2021/11/03 14:17:24;;;;;;;;;;;7.30;99.90;;;;;;5069961;28;19917;-74
2021/11/03 14:19:51;;;;;;;;;;;7.30;99.90;;;;;;5052761;28;19976;-74
2021/11/03 14:22:20;;;;;;;;;;;7.20;99.90;;;;;;5051756;28;19974;-74
2021/11/03 14:24:46;;;;;;;;;;;7.20;99.90;;;;;;5070127;28;20023;-74
2021/11/03 14:27:12;;;;;;;;;;;7.20;99.90;;;;;;5070876;28;20015;-74
2021/11/03 14:29:38;;;;;;;;;;;7.20;99.90;;;;;;5059881;28;19923;-74
2021/11/03 14:32:05;;;;;;;;;;;7.20;99.90;;;;;;5069783;28;19909;-74
2021/11/03 14:34:31;;;;;;;;;;;7.10;99.90;;;;;;5070249;28;20356;-74